Station: Coonawarra  

  Atmospheric Gas Attenuation - ITU Rec 676-11   ----------------- dB/100km -----------------
Date Time Temp RH % AH g/m3 Dew Point Wind Direction Speed kph Gust kph Barometer mB Rainfall Since 9am 24GHz 47GHz 76GHz 122GHz 134GHz 241GHz
05/05 03:40 10.9 98 9.75 10.6 11 13 1018.8 2.2 22.2 29.0 46.5 122.2 118.9 409.6
05/05 03:30 10.8 98 9.69 10.5 11 13 1018.8 2.2 22.1 28.9 46.3 121.6 118.1 407.1
05/05 03:20 10.8 98 9.69 10.5 9 11 1018.7 2.2 22.1 28.9 46.3 121.6 118.1 407.0
05/05 03:10 10.7 98 9.63 10.4 9 11 1018.6 2.2 22.0 28.8 46.1 121.0 117.4 404.5
05/05 03:00 10.6 98 9.57 10.3 9 15 1018.6 2.2 21.8 28.7 45.9 120.5 116.7 402.0
05/05 02:50 10.3 98 9.39 10 9 11 1018.6 2.2 21.5 28.5 45.2 118.9 114.6 394.6
05/05 02:40 10 98 9.21 9.7 7 7 1018.6 2.2 21.1 28.3 44.6 117.2 112.5 387.1
05/05 02:30 10.1 98 9.27 9.8 7 9 1018.6 2.2 21.2 28.4 44.8 117.8 113.2 389.6
05/05 02:20 10.4 98 9.45 10.1 7 9 1018.5 2.2 21.6 28.6 45.4 119.4 115.3 397.0
05/05 02:10 10.5 98 9.51 10.2 7 9 1018.5 2.2 21.7 28.7 45.6 119.9 116.0 399.5
05/05 02:00 10.5 98 9.51 10.2 7 9 1018.5 2.2 21.7 28.7 45.6 119.9 116.0 399.5
05/05 01:50 10.6 98 9.57 10.3 7 9 1018.4 2.2 21.8 28.7 45.8 120.5 116.7 402.0
05/05 01:40 10 98 9.21 9.7 11 11 1018.4 2.2 21.1 28.3 44.6 117.2 112.4 387.0
05/05 01:30 10 97 9.12 9.5 7 7 1018.3 2.2 20.9 28.1 44.2 116.2 111.1 382.5
05/05 01:20 10.2 97 9.23 9.7 7 7 1018.3 2.2 21.1 28.3 44.6 117.1 112.4 387.0
05/05 01:10 10.2 97 9.23 9.7 9 11 1018.3 2.2 21.1 28.3 44.6 117.1 112.4 387.0
05/05 01:00 10.3 97 9.29 9.8 9 13 1018.2 2.2 21.2 28.3 44.8 117.7 113.1 389.4
05/05 00:50 10.1 97 9.17 9.6 11 13 1018.2 2.2 21.0 28.2 44.4 116.6 111.7 384.5
05/05 00:40 9.7 97 8.94 9.2 9 9 1018 2 20.5 27.9 43.6 114.5 109.0 374.9
05/05 00:30 9.8 97 9 9.3 7 9 1017.8 2 20.6 28.0 43.8 115.0 109.7 377.4
05/05 00:20 9.6 97 8.89 9.1 9 9 1017.9 2 20.4 27.8 43.4 114.1 108.4 372.9
05/05 00:10 9.9 97 9.06 9.4 7 9 1017.7 2 20.8 28.0 44.0 115.5 110.4 379.8
05/05 00:00 10.1 97 9.17 9.6 7 9 1017.7 2 21.0 28.2 44.4 116.5 111.7 384.3
04/05 23:50 9.7 96 8.85 9.1 7 7 1017.8 2 20.3 27.7 43.2 113.4 107.7 370.4
04/05 23:40 9.8 96 8.91 9.2 7 7 1017.6 2 20.4 27.8 43.4 114.0 108.4 372.8
04/05 23:30 10.1 96 9.08 9.5 9 13 1017.4 2 20.8 28.0 44.0 115.4 110.3 379.7
04/05 23:20 10.1 96 9.08 9.5 7 9 1017.4 2 20.8 28.0 44.0 115.4 110.3 379.7
04/05 23:10 10.3 95 9.1 9.5 9 9 1017.4 2 20.8 28.0 43.9 115.4 110.3 379.7
04/05 23:00 10.7 96 9.43 10.1 11 13 1017.2 2 21.5 28.4 45.1 118.6 114.4 394.1
04/05 22:50 10.8 96 9.49 10.2 11 13 1017.4 2 21.6 28.5 45.3 119.1 115.1 396.6
04/05 22:40 10.7 96 9.43 10.1 9 11 1017.4 2 21.5 28.4 45.1 118.6 114.4 394.1
04/05 22:30 10.5 95 9.22 9.7 11 13 1017.3 2 21.1 28.1 44.3 116.4 111.7 384.7
04/05 22:20 10.7 95 9.33 9.9 11 13 1017.3 2 21.3 28.2 44.7 117.4 113.0 389.1
04/05 22:10 11 95 9.51 10.2 9 9 1017.2 2 21.7 28.4 45.3 119.0 115.1 396.5
04/05 22:00 11.1 95 9.57 10.3 9 13 1017.1 2 21.8 28.5 45.5 119.5 115.8 399.0
04/05 21:50 11.1 95 9.57 10.3 7 9 1017.1 2 21.8 28.5 45.5 119.5 115.8 399.0
04/05 21:40 11.1 95 9.57 10.3 7 7 1017 2 21.8 28.5 45.5 119.5 115.8 398.9
04/05 21:30 11.4 95 9.75 10.6 13 19 1016.8 2 22.2 28.7 46.1 121.1 117.9 406.3
04/05 21:20 11.5 96 9.92 10.9 15 17 1016.7 2 22.5 29.0 46.8 122.9 120.1 414.2
04/05 21:10 10.9 96 9.55 10.3 13 13 1016.7 2 21.8 28.5 45.5 119.6 115.8 398.9
04/05 21:00 10.7 96 9.43 10.1 11 13 1016.3 2 21.5 28.4 45.1 118.5 114.3 393.8
04/05 20:50 10.8 95 9.39 10 13 13 1016.2 2 21.4 28.3 44.8 117.8 113.6 391.3
04/05 20:40 10.9 95 9.45 10.1 13 15 1016 2 21.6 28.3 45.0 118.3 114.3 393.7
04/05 20:30 11.1 95 9.57 10.3 13 17 1015.8 2 21.8 28.5 45.4 119.4 115.7 398.5
04/05 20:20 11.2 95 9.63 10.4 13 13 1015.7 2 21.9 28.5 45.6 119.9 116.4 401.0
04/05 20:10 11.4 95 9.75 10.6 11 13 1015.6 2 22.2 28.7 46.0 121.0 117.8 405.9
04/05 20:00 11.5 95 9.81 10.7 13 17 1015.3 2 22.3 28.7 46.2 121.5 118.4 408.2
04/05 19:50 11.7 95 9.94 10.9 13 13 1015.3 2 22.6 28.9 46.7 122.7 120.0 413.7
04/05 19:40 11.8 94 9.89 10.9 13 15 1015.2 2 22.5 28.8 46.4 121.9 119.1 410.6
04/05 19:30 11.9 94 9.96 11 13 19 1015.1 2 22.6 28.8 46.6 122.6 119.9 413.5
04/05 19:20 12.1 92 9.87 10.8 13 17 1015 2 22.4 28.6 46.1 121.2 118.3 408.0
04/05 19:10 12.2 92 9.93 10.9 17 19 1014.9 2 22.5 28.7 46.3 121.7 119.0 410.4
04/05 19:00 12.1 92 9.87 10.8 17 20 1014.7 2 22.4 28.6 46.1 121.2 118.3 407.9
04/05 18:50 11.9 91 9.64 10.5 13 15 1014.7 2 21.9 28.3 45.2 118.8 115.4 397.5
04/05 18:40 12 91 9.7 10.6 15 17 1014.6 2 22.0 28.3 45.4 119.4 116.0 400.0
04/05 18:30 12.1 90 9.65 10.5 13 17 1014.3 2 21.9 28.2 45.1 118.6 115.2 396.9
04/05 18:20 12.3 90 9.77 10.7 13 15 1014.1 2 22.2 28.3 45.5 119.6 116.5 401.7
04/05 18:10 12.6 89 9.85 10.8 15 15 1014 1.8 22.3 28.4 45.7 120.1 117.2 404.0
04/05 18:00 12.9 87 9.81 10.8 20 32 1013.8 1.8 22.2 28.2 45.3 119.1 116.1 400.4
04/05 17:50 13.4 86 10 11.1 28 33 1013.6 1.8 22.6 28.4 45.8 120.5 118.0 407.0
04/05 17:40 13.3 87 10.05 11.2 24 28 1013.4 1.8 22.7 28.5 46.1 121.2 118.9 410.0
04/05 17:30 13.6 84 9.89 11 19 26 1013.2 1.8 22.4 28.1 45.2 118.9 116.1 400.5
04/05 17:20 13.7 84 9.95 11 17 19 1013.1 1.8 22.5 28.2 45.4 119.4 116.8 402.9
04/05 17:10 14 83 10.01 11.2 19 22 1012.9 1.8 22.6 28.2 45.5 119.6 117.2 404.2
04/05 17:00 14 82 9.89 11 22 32 1012.8 1.8 22.3 27.9 45.0 118.3 115.5 398.3
04/05 16:50 14.2 80 9.77 10.8 26 32 1012.6 1.8 22.1 27.7 44.3 116.6 113.5 391.5
04/05 16:40 14.4 82 10.14 11.4 20 24 1012.4 1.8 22.9 28.2 45.8 120.4 118.3 408.2
04/05 16:30 14.8 81 10.26 11.6 20 33 1012.3 1.8 23.1 28.3 46.0 121.1 119.3 411.9
04/05 16:20 14.9 80 10.2 11.5 24 28 1012.1 1.8 23.0 28.2 45.7 120.3 118.3 408.4
04/05 16:10 14.4 85 10.51 11.9 19 20 1011.9 1.8 23.7 28.8 47.3 124.5 123.4 426.0
04/05 16:00 14.7 83 10.45 11.8 24 39 1011.7 1.8 23.5 28.6 46.9 123.3 122.1 421.4
04/05 15:50 15.3 81 10.58 12.1 22 26 1011.5 1.8 23.8 28.6 47.0 123.8 122.9 424.4
04/05 15:40 15.1 81 10.45 11.9 24 30 1011.3 1.8 23.5 28.5 46.6 122.7 121.4 419.1
04/05 15:30 14.2 82 10.01 11.2 32 46 1011.2 1.8 22.6 28.0 45.3 119.1 116.7 402.6
04/05 15:20 15.5 78 10.31 11.7 33 43 1011 1.8 23.2 28.1 45.8 120.4 118.8 410.1
04/05 15:10 16 78 10.63 12.2 28 33 1010.8 1.8 23.8 28.5 46.8 123.2 122.4 422.7
04/05 15:00 15.3 85 11.1 12.8 20 41 1010.7 1.8 24.9 29.5 49.2 129.6 130.1 449.5
04/05 14:50 15.1 84 10.84 12.4 22 32 1010.6 1.8 24.3 29.1 48.2 127.0 126.8 437.8
04/05 14:40 15 87 11.16 12.9 22 30 1010.4 1.8 25.0 29.7 49.7 130.8 131.4 454.1
04/05 14:30 14.3 87 10.69 12.2 26 37 1010.3 1.8 24.0 29.1 48.1 126.5 125.9 434.9
04/05 14:20 14.6 85 10.64 12.1 32 37 1010.1 1.6 23.9 28.9 47.7 125.5 124.7 430.7
04/05 14:10 16.1 80 10.97 12.7 30 33 1009.7 1.4 24.5 29.0 48.1 126.7 126.8 438.2
04/05 14:00 15.4 83 10.9 12.5 24 33 1009.6 1.4 24.4 29.1 48.2 127.1 127.0 438.7
04/05 13:50 14.5 83 10.32 11.6 30 35 1009.7 1.4 23.2 28.4 46.3 122.0 120.4 415.5
04/05 13:40 14.7 88 11.08 12.7 11 13 1009.5 1.2 24.9 29.6 49.5 130.3 130.7 451.6
04/05 13:30 14.2 89 10.87 12.4 20 30 1009.5 1.2 24.4 29.4 48.9 128.7 128.6 444.1
04/05 13:20 14.3 88 10.81 12.3 20 26 1009.4 1.2 24.3 29.3 48.5 127.8 127.5 440.5
04/05 13:10 14.4 88 10.88 12.4 24 30 1009.4 1.2 24.5 29.4 48.8 128.5 128.4 443.4
04/05 13:00 14.3 89 10.93 12.5 20 30 1009.3 1.2 24.6 29.5 49.0 129.2 129.2 446.4
04/05 12:50 15 84 10.77 12.3 20 26 1009.1 0.2 24.2 29.0 47.9 126.2 125.8 434.5
04/05 12:40 14.9 85 10.83 12.4 22 26 1009.1 0.2 24.3 29.1 48.2 127.0 126.8 438.0
04/05 12:30 14.5 84 10.45 11.8 24 33 1009.2 0.2 23.5 28.6 46.9 123.4 122.1 421.7
04/05 12:20 14.6 83 10.39 11.7 33 43 1009 0.2 23.4 28.5 46.5 122.5 121.1 418.1
04/05 12:10 14.8 83 10.51 11.9 26 33 1009 0.2 23.6 28.6 46.9 123.5 122.5 422.9
04/05 12:00 15.8 86 11.58 13.5 30 41 1009 0.2 25.9 30.1 50.9 134.1 135.8 469.6
04/05 11:50 15.5 88 11.63 13.5 19 24 1008.9 0.2 26.0 30.3 51.3 135.2 137.1 473.9
04/05 11:40 14.8 89 11.27 13 24 33 1009.1 0.2 25.3 29.9 50.2 132.2 133.2 460.3
04/05 11:30 14.7 88 11.08 12.7 30 41 1009.1 0.2 24.9 29.6 49.4 130.2 130.7 451.4
04/05 11:20 15 86 11.03 12.7 30 39 1008.9 0 24.7 29.4 49.0 129.1 129.4 447.2
04/05 11:10 16.3 78 10.82 12.5 32 37 1008.7 0 24.2 28.6 47.3 124.6 124.3 429.5

Last Refresh: 05-May-2026 03:41:59

Bureau of Meteorology